createdAt,value
2019-05-13T00:01:08.446Z,10.90
2019-05-13T00:22:37.987Z,10.50
2019-05-13T00:33:46.010Z,10.30
2019-05-13T00:38:50.305Z,10.10
2019-05-13T00:43:55.797Z,9.90
2019-05-13T01:00:19.567Z,9.50
2019-05-13T01:05:24.017Z,9.30
2019-05-13T01:10:28.370Z,9.40
2019-05-13T01:15:34.331Z,9.40
2019-05-13T01:20:38.824Z,9.30
2019-05-13T01:25:44.536Z,9.30
2019-05-13T01:30:49.225Z,9.50
2019-05-13T01:35:53.949Z,9.40
2019-05-13T01:40:58.435Z,9.20
2019-05-13T01:46:04.425Z,9.10
2019-05-13T01:51:08.880Z,9.10
2019-05-13T01:56:14.177Z,9.00
2019-05-13T02:01:18.643Z,9.00
2019-05-13T02:06:24.097Z,8.90
2019-05-13T02:11:28.615Z,8.80
2019-05-13T02:16:33.845Z,8.80
2019-05-13T02:21:38.336Z,8.80
2019-05-13T02:26:43.699Z,8.70
2019-05-13T02:31:53.129Z,8.70
2019-05-13T02:36:54.445Z,8.60
2019-05-13T02:41:58.803Z,8.50
2019-05-13T02:47:03.832Z,8.60
2019-05-13T02:52:08.710Z,8.70
2019-05-13T02:57:13.061Z,8.50
2019-05-13T03:02:17.431Z,8.50
2019-05-13T03:07:23.250Z,8.40
2019-05-13T03:12:27.986Z,8.30
2019-05-13T03:17:38.312Z,8.10
2019-05-13T03:22:43.450Z,8.10
2019-05-13T03:27:48.001Z,8.00
2019-05-13T03:33:00.393Z,7.90
2019-05-13T03:37:58.625Z,7.90
2019-05-13T03:43:03.229Z,7.80
2019-05-13T03:48:07.708Z,7.70
2019-05-13T03:53:13.146Z,7.70
2019-05-13T03:58:18.188Z,7.70
2019-05-13T04:03:23.017Z,7.50
2019-05-13T04:08:27.446Z,7.60
2019-05-13T04:13:33.388Z,7.70
2019-05-13T04:18:38.012Z,7.80
2019-05-13T04:23:42.920Z,7.80
2019-05-13T04:28:47.631Z,7.80
2019-05-13T04:33:53.237Z,7.90
2019-05-13T04:38:58.169Z,7.90
2019-05-13T04:44:02.917Z,8.00
2019-05-13T04:49:07.484Z,8.00
2019-05-13T04:54:13.184Z,8.20
2019-05-13T04:59:17.660Z,8.30
2019-05-13T05:04:34.908Z,8.50
2019-05-13T05:10:16.807Z,8.70
2019-05-13T05:15:37.872Z,8.80
2019-05-13T05:21:24.874Z,8.80
2019-05-13T05:27:14.105Z,8.90
2019-05-13T05:32:51.808Z,9.10
2019-05-13T05:38:28.550Z,9.30
2019-05-13T05:43:38.543Z,9.50
2019-05-13T05:48:43.779Z,9.80
2019-05-13T05:53:51.641Z,10.00
2019-05-13T05:58:57.304Z,10.30
2019-05-13T06:04:01.973Z,10.50
2019-05-13T06:09:07.406Z,10.70
2019-05-13T06:14:11.772Z,10.90
2019-05-13T06:19:18.018Z,11.10
2019-05-13T06:24:26.469Z,11.20
2019-05-13T06:29:28.474Z,11.50
2019-05-13T06:34:33.153Z,11.70
2019-05-13T06:39:37.618Z,11.80
2019-05-13T06:44:42.422Z,12.00
2019-05-13T06:49:51.805Z,12.20
2019-05-13T06:54:56.185Z,12.20
2019-05-13T07:00:01.637Z,12.30
2019-05-13T07:05:06.747Z,12.50
2019-05-13T07:10:12.656Z,12.50
2019-05-13T07:15:17.409Z,12.50
2019-05-13T07:20:22.638Z,12.60
2019-05-13T07:25:27.316Z,12.70
2019-05-13T07:30:42.490Z,12.80
2019-05-13T07:35:47.098Z,12.80
2019-05-13T07:40:56.702Z,12.90
2019-05-13T07:46:02.124Z,13.00
2019-05-13T07:51:06.916Z,13.10
2019-05-13T07:56:12.462Z,13.20
2019-05-13T08:01:17.198Z,13.20
2019-05-13T08:06:22.121Z,13.30
2019-05-13T08:11:26.833Z,13.50
2019-05-13T08:16:35.983Z,13.60
2019-05-13T08:21:41.798Z,13.60
2019-05-13T08:26:49.984Z,13.60
2019-05-13T08:31:52.475Z,13.70
2019-05-13T08:36:56.923Z,13.70
2019-05-13T08:42:12.718Z,13.90
2019-05-13T08:47:07.503Z,14.00
2019-05-13T08:52:12.327Z,14.10
2019-05-13T08:57:16.807Z,14.20
2019-05-13T09:02:22.190Z,14.40
2019-05-13T09:07:26.794Z,14.50
2019-05-13T09:12:35.652Z,14.70
2019-05-13T09:17:37.495Z,14.90
2019-05-13T09:22:41.833Z,14.90
2019-05-13T09:27:46.364Z,15.00
2019-05-13T09:32:51.396Z,15.10
2019-05-13T09:37:55.963Z,15.30
2019-05-13T09:43:02.423Z,15.50
2019-05-13T09:48:06.445Z,15.70
2019-05-13T09:53:11.536Z,15.70
2019-05-13T09:58:16.165Z,15.80
2019-05-13T10:03:26.666Z,16.00
2019-05-13T10:08:26.593Z,16.30
2019-05-13T10:13:31.726Z,16.50
2019-05-13T10:18:36.456Z,16.70
2019-05-13T10:23:41.888Z,16.90
2019-05-13T10:28:46.660Z,17.20
2019-05-13T10:33:51.570Z,17.30
2019-05-13T10:38:56.054Z,17.30
2019-05-13T10:44:03.080Z,17.50
2019-05-13T10:49:06.863Z,17.60
2019-05-13T10:54:11.214Z,17.90
2019-05-13T10:59:15.572Z,18.20
2019-05-13T11:04:22.104Z,18.40
2019-05-13T11:09:26.022Z,18.40
2019-05-13T11:14:32.274Z,18.70
2019-05-13T11:19:37.214Z,19.10
2019-05-13T11:24:43.127Z,19.50
2019-05-13T11:29:47.841Z,19.80
2019-05-13T11:34:53.216Z,20.10
2019-05-13T11:39:57.749Z,20.50
2019-05-13T11:45:02.111Z,20.80
2019-05-13T11:50:06.778Z,21.00
2019-05-13T11:55:13.047Z,21.10
2019-05-13T12:00:23.783Z,21.10
2019-05-13T12:05:28.144Z,21.40
2019-05-13T12:10:32.673Z,21.60
2019-05-13T12:15:46.047Z,21.90
2019-05-13T12:20:43.227Z,22.00
2019-05-13T12:25:47.706Z,21.90
2019-05-13T12:30:53.005Z,21.70
2019-05-13T12:35:57.990Z,21.90
2019-05-13T12:41:05.619Z,22.10
2019-05-13T12:46:12.585Z,22.20
2019-05-13T12:51:17.261Z,22.30
2019-05-13T12:56:23.674Z,22.40
2019-05-13T13:01:28.322Z,22.70
2019-05-13T13:06:40.256Z,22.80
2019-05-13T13:11:38.734Z,23.00
2019-05-13T13:16:43.267Z,23.00
2019-05-13T13:21:47.841Z,22.90
2019-05-13T13:26:53.551Z,22.90
2019-05-13T13:31:58.363Z,22.90
2019-05-13T13:37:04.954Z,22.90
2019-05-13T13:42:08.883Z,23.10
2019-05-13T13:47:14.652Z,23.30
2019-05-13T13:52:19.384Z,23.50
2019-05-13T13:57:25.626Z,23.30
2019-05-13T14:02:36.550Z,23.40
2019-05-13T14:07:38.910Z,23.50
2019-05-13T14:12:42.140Z,23.50
2019-05-13T14:17:46.504Z,23.40
2019-05-13T14:22:57.336Z,23.30
2019-05-13T14:27:57.261Z,23.20
2019-05-13T14:33:02.343Z,22.90
2019-05-13T14:38:06.917Z,23.00
2019-05-13T14:43:12.112Z,23.30
2019-05-13T14:48:16.694Z,23.40
2019-05-13T14:53:21.443Z,23.40
2019-05-13T14:58:25.996Z,23.30
2019-05-13T15:03:32.603Z,23.30
2019-05-13T15:08:36.569Z,23.40
2019-05-13T15:13:42.504Z,23.40
2019-05-13T15:18:47.250Z,23.50
2019-05-13T15:23:51.961Z,23.60
2019-05-13T15:28:56.414Z,23.60
2019-05-13T15:34:02.612Z,23.50
2019-05-13T15:39:07.954Z,23.40
2019-05-13T15:44:12.581Z,23.20
2019-05-13T15:49:17.002Z,23.20
2019-05-13T15:54:22.082Z,23.00
2019-05-13T15:59:26.649Z,23.00
2019-05-13T16:04:32.839Z,22.90
2019-05-13T16:09:37.198Z,22.80
2019-05-13T16:14:42.078Z,22.60
2019-05-13T16:19:46.799Z,22.50
2019-05-13T16:24:52.142Z,22.20
2019-05-13T16:29:56.777Z,22.00
2019-05-13T16:35:02.724Z,22.00
2019-05-13T16:40:08.337Z,21.90
2019-05-13T16:45:13.073Z,21.90
2019-05-13T16:50:17.441Z,21.80
2019-05-13T16:55:21.813Z,21.80
2019-05-13T17:00:26.252Z,21.60
2019-05-13T17:05:32.456Z,21.50
2019-05-13T17:10:36.803Z,21.40
2019-05-13T17:15:44.470Z,21.40
2019-05-13T17:20:48.839Z,21.30
2019-05-13T17:25:53.172Z,21.10
2019-05-13T17:30:57.614Z,21.00
2019-05-13T17:36:02.219Z,20.80
2019-05-13T17:41:06.630Z,20.60
2019-05-13T17:46:10.988Z,20.50
2019-05-13T17:51:16.487Z,20.20
2019-05-13T17:56:21.640Z,20.20
2019-05-13T18:01:26.460Z,20.00
2019-05-13T18:06:30.867Z,19.90
2019-05-13T18:11:35.220Z,19.70
2019-05-13T18:16:41.722Z,19.60
2019-05-13T18:21:45.727Z,19.80
2019-05-13T18:26:52.004Z,19.50
2019-05-13T18:31:56.239Z,19.40
2019-05-13T18:37:02.407Z,19.30
2019-05-13T18:42:06.941Z,19.10
2019-05-13T18:47:12.101Z,19.00
2019-05-13T18:52:16.800Z,18.80
2019-05-13T18:57:23.930Z,18.70
2019-05-13T19:02:28.327Z,18.60
2019-05-13T19:07:32.679Z,18.40
2019-05-13T19:12:37.004Z,18.30
2019-05-13T19:17:41.715Z,18.20
2019-05-13T19:22:46.158Z,18.00
2019-05-13T19:27:51.731Z,17.90
2019-05-13T19:32:56.147Z,17.80
2019-05-13T19:38:01.625Z,17.60
2019-05-13T19:43:06.261Z,17.60
2019-05-13T19:48:11.792Z,17.50
2019-05-13T19:53:16.594Z,17.40
2019-05-13T19:58:21.619Z,17.60
2019-05-13T20:03:26.120Z,17.50
2019-05-13T20:08:32.105Z,17.40
2019-05-13T20:13:36.807Z,17.70
2019-05-13T20:18:41.544Z,18.00
2019-05-13T20:23:46.056Z,18.30
2019-05-13T20:28:51.315Z,18.50
2019-05-13T20:33:56.194Z,18.50
2019-05-13T20:39:02.106Z,18.50
2019-05-13T20:44:06.756Z,18.50
2019-05-13T20:49:12.044Z,18.60
2019-05-13T20:54:16.633Z,18.60
2019-05-13T20:59:21.585Z,18.70
2019-05-13T21:04:26.225Z,18.70
2019-05-13T21:09:31.637Z,18.70
2019-05-13T21:14:36.218Z,18.70
2019-05-13T21:19:42.769Z,18.60
2019-05-13T21:24:46.659Z,18.60
2019-05-13T21:29:51.950Z,18.50
2019-05-13T21:34:56.438Z,18.50
2019-05-13T21:40:04.250Z,18.50
2019-05-13T21:45:10.998Z,18.50
2019-05-13T22:15:28.672Z,17.90
2019-05-13T22:20:45.747Z,17.80
2019-05-13T22:25:43.174Z,17.80
2019-05-13T22:30:45.151Z,17.90
2019-05-13T22:35:52.092Z,17.90
2019-05-13T22:40:55.557Z,17.80
2019-05-13T22:45:59.932Z,17.50
2019-05-13T22:51:04.291Z,17.50
2019-05-13T22:56:08.594Z,17.50
2019-05-13T23:01:12.816Z,17.40
2019-05-13T23:06:17.214Z,17.40
2019-05-13T23:11:21.997Z,17.30
2019-05-13T23:16:26.402Z,17.30
2019-05-13T23:21:31.267Z,17.30
2019-05-13T23:26:35.811Z,17.40
2019-05-13T23:31:41.467Z,17.30
2019-05-13T23:36:46.041Z,17.00
2019-05-13T23:41:52.140Z,16.80
2019-05-13T23:46:56.383Z,16.60
2019-05-13T23:52:02.557Z,16.30
2019-05-13T23:57:07.064Z,15.90
